createdAt,value
2023-12-11T00:00:03.380Z,621.00
2023-12-11T00:01:03.461Z,626.00
2023-12-11T00:02:03.530Z,632.00
2023-12-11T00:03:03.550Z,628.00
2023-12-11T00:04:03.590Z,631.00
2023-12-11T00:05:03.608Z,622.00
2023-12-11T00:06:03.631Z,623.00
2023-12-11T00:07:03.741Z,618.00
2023-12-11T00:08:03.699Z,618.00
2023-12-11T00:09:03.788Z,625.00
2023-12-11T00:10:04.016Z,624.00
2023-12-11T00:11:03.921Z,625.00
2023-12-11T00:12:03.974Z,624.00
2023-12-11T00:13:04.052Z,625.00
2023-12-11T00:14:04.127Z,620.00
2023-12-11T00:15:04.177Z,625.00
2023-12-11T00:16:04.280Z,624.00
2023-12-11T00:17:04.321Z,623.00
2023-12-11T00:18:04.437Z,627.00
2023-12-11T00:19:04.653Z,625.00
2023-12-11T00:20:04.463Z,626.00
2023-12-11T00:21:04.525Z,626.00
2023-12-11T00:22:04.619Z,632.00
2023-12-11T00:23:04.622Z,621.00
2023-12-11T00:24:04.669Z,630.00
2023-12-11T00:25:04.761Z,634.00
2023-12-11T00:26:04.787Z,624.00
2023-12-11T00:27:04.871Z,620.00
2023-12-11T00:28:04.978Z,629.00
2023-12-11T00:29:04.940Z,628.00
2023-12-11T00:30:05.017Z,620.00
2023-12-11T00:31:05.092Z,626.00
2023-12-11T00:32:05.127Z,626.00
2023-12-11T00:33:05.284Z,622.00
2023-12-11T00:34:05.433Z,624.00
2023-12-11T00:35:05.373Z,623.00
2023-12-11T00:36:05.380Z,623.00
2023-12-11T00:37:05.529Z,627.00
2023-12-11T00:38:05.466Z,629.00
2023-12-11T00:39:05.596Z,622.00
2023-12-11T00:40:05.649Z,627.00
2023-12-11T00:41:05.720Z,624.00
2023-12-11T00:42:05.733Z,631.00
2023-12-11T00:43:05.844Z,626.00
2023-12-11T00:44:05.825Z,625.00
2023-12-11T00:45:05.911Z,627.00
2023-12-11T00:46:06.082Z,628.00
2023-12-11T00:47:06.025Z,621.00
2023-12-11T00:48:06.246Z,623.00
2023-12-11T00:49:06.279Z,626.00
2023-12-11T00:50:07.500Z,622.00
2023-12-11T00:51:06.296Z,626.00
2023-12-11T00:52:06.372Z,621.00
2023-12-11T00:53:06.434Z,620.00
2023-12-11T00:54:06.446Z,619.00
2023-12-11T00:55:06.518Z,627.00
2023-12-11T00:56:06.539Z,626.00
2023-12-11T00:57:06.575Z,625.00
2023-12-11T00:58:06.663Z,626.00
2023-12-11T00:59:06.653Z,624.00
2023-12-11T01:00:06.739Z,630.00
2023-12-11T01:01:06.885Z,632.00
2023-12-11T01:02:06.862Z,625.00
2023-12-11T01:03:06.917Z,629.00
2023-12-11T01:04:06.990Z,629.00
2023-12-11T01:05:07.146Z,623.00
2023-12-11T01:06:07.118Z,624.00
2023-12-11T01:07:07.186Z,630.00
2023-12-11T01:08:07.119Z,619.00
2023-12-11T01:09:07.212Z,624.00
2023-12-11T01:10:07.348Z,624.00
2023-12-11T01:11:07.350Z,627.00
2023-12-11T01:12:07.417Z,629.00
2023-12-11T01:13:07.553Z,628.00
2023-12-11T01:14:07.531Z,627.00
2023-12-11T01:15:07.584Z,623.00
2023-12-11T01:16:07.704Z,630.00
2023-12-11T01:17:36.586Z,621.00
2023-12-11T01:18:08.827Z,621.00
2023-12-11T01:19:07.810Z,623.00
2023-12-11T01:20:07.790Z,624.00
2023-12-11T01:21:07.680Z,624.00
2023-12-11T01:22:07.738Z,631.00
2023-12-11T01:23:07.683Z,623.00
2023-12-11T01:24:07.691Z,631.00
2023-12-11T01:25:07.747Z,619.00
2023-12-11T01:26:07.653Z,623.00
2023-12-11T01:27:07.675Z,627.00
2023-12-11T01:28:07.780Z,626.00
2023-12-11T01:29:07.816Z,626.00
2023-12-11T01:30:07.858Z,627.00
2023-12-11T01:31:07.944Z,625.00
2023-12-11T01:32:07.932Z,623.00
2023-12-11T01:33:08.188Z,628.00
2023-12-11T01:34:08.149Z,629.00
2023-12-11T01:35:08.127Z,625.00
2023-12-11T01:36:08.215Z,629.00
2023-12-11T01:37:08.289Z,626.00
2023-12-11T01:38:08.331Z,619.00
2023-12-11T01:39:08.392Z,624.00
2023-12-11T01:40:08.522Z,626.00
2023-12-11T01:41:08.531Z,616.00
2023-12-11T01:42:08.615Z,622.00
2023-12-11T01:43:14.412Z,623.00
2023-12-11T01:44:09.693Z,624.00
2023-12-11T01:45:08.682Z,624.00
2023-12-11T01:46:08.788Z,623.00
2023-12-11T01:47:08.680Z,619.00
2023-12-11T01:48:08.817Z,624.00
2023-12-11T01:49:08.768Z,623.00
2023-12-11T01:50:08.687Z,624.00
2023-12-11T01:51:08.677Z,624.00
2023-12-11T01:52:08.852Z,622.00
2023-12-11T01:53:08.795Z,621.00
2023-12-11T01:54:08.861Z,633.00
2023-12-11T01:55:08.978Z,625.00
2023-12-11T01:56:08.947Z,625.00
2023-12-11T01:57:09.063Z,627.00
2023-12-11T01:58:09.181Z,622.00
2023-12-11T01:59:09.133Z,626.00
2023-12-11T02:00:09.206Z,625.00
2023-12-11T02:01:09.293Z,630.00
2023-12-11T02:02:09.311Z,628.00
2023-12-11T02:03:09.368Z,624.00
2023-12-11T02:04:09.488Z,620.00
2023-12-11T02:05:09.548Z,627.00
2023-12-11T02:06:09.516Z,624.00
2023-12-11T02:07:09.587Z,623.00
2023-12-11T02:08:09.581Z,628.00
2023-12-11T02:09:09.665Z,617.00
2023-12-11T02:10:09.816Z,624.00
2023-12-11T02:11:09.727Z,628.00
2023-12-11T02:12:09.807Z,622.00
2023-12-11T02:13:09.972Z,626.00
2023-12-11T02:14:09.882Z,627.00
2023-12-11T02:15:09.910Z,629.00
2023-12-11T02:16:09.981Z,620.00
2023-12-11T02:17:10.019Z,619.00
2023-12-11T02:18:10.093Z,623.00
2023-12-11T02:19:10.183Z,623.00
2023-12-11T02:20:10.165Z,624.00
2023-12-11T02:21:10.238Z,622.00
2023-12-11T02:22:10.279Z,625.00
2023-12-11T02:23:10.285Z,621.00
2023-12-11T02:24:10.376Z,627.00
2023-12-11T02:25:10.506Z,629.00
2023-12-11T02:26:10.456Z,621.00
2023-12-11T02:27:10.510Z,630.00
2023-12-11T02:28:10.651Z,619.00
2023-12-11T02:29:10.614Z,623.00
2023-12-11T02:30:10.677Z,628.00
2023-12-11T02:31:10.805Z,623.00
2023-12-11T02:32:10.796Z,626.00
2023-12-11T02:33:10.873Z,619.00
2023-12-11T02:34:10.998Z,625.00
2023-12-11T02:35:10.897Z,622.00
2023-12-11T02:36:10.981Z,622.00
2023-12-11T02:37:11.035Z,620.00
2023-12-11T02:38:11.077Z,621.00
2023-12-11T02:39:11.139Z,619.00
2023-12-11T02:40:11.239Z,625.00
2023-12-11T02:41:11.249Z,621.00
2023-12-11T02:42:11.266Z,629.00
2023-12-11T02:43:11.433Z,617.00
2023-12-11T02:44:11.435Z,630.00
2023-12-11T02:45:11.438Z,629.00
2023-12-11T02:46:11.507Z,621.00
2023-12-11T02:47:11.513Z,620.00
2023-12-11T02:48:11.661Z,620.00
2023-12-11T02:49:11.768Z,623.00
2023-12-11T02:50:11.708Z,621.00
2023-12-11T02:51:11.829Z,629.00
2023-12-11T02:52:11.822Z,618.00
2023-12-11T02:53:11.841Z,628.00
2023-12-11T02:54:11.990Z,622.00
2023-12-11T02:55:12.142Z,619.00
2023-12-11T02:56:12.039Z,630.00
2023-12-11T02:57:12.114Z,625.00
2023-12-11T02:58:12.202Z,619.00
2023-12-11T02:59:12.164Z,629.00
2023-12-11T03:00:12.243Z,623.00
2023-12-11T03:01:12.380Z,620.00
2023-12-11T03:02:12.347Z,618.00
2023-12-11T03:03:12.389Z,617.00
2023-12-11T03:04:12.530Z,623.00
2023-12-11T03:05:12.508Z,622.00
2023-12-11T03:06:12.561Z,624.00
2023-12-11T03:07:12.660Z,628.00
2023-12-11T03:08:12.642Z,624.00
2023-12-11T03:09:12.699Z,624.00
2023-12-11T03:10:12.820Z,619.00
2023-12-11T03:11:12.800Z,619.00
2023-12-11T03:12:12.845Z,621.00
2023-12-11T03:13:12.910Z,618.00
2023-12-11T03:14:12.972Z,617.00
2023-12-11T03:15:12.998Z,624.00
2023-12-11T03:16:13.160Z,622.00
2023-12-11T03:17:13.151Z,622.00
2023-12-11T03:18:13.501Z,627.00
2023-12-11T03:19:13.309Z,626.00
2023-12-11T03:20:13.333Z,620.00
2023-12-11T03:21:13.383Z,621.00
2023-12-11T03:22:13.515Z,622.00
2023-12-11T03:23:13.515Z,620.00
2023-12-11T03:24:13.580Z,623.00
2023-12-11T03:25:13.702Z,623.00
2023-12-11T03:26:13.654Z,620.00
2023-12-11T03:27:13.743Z,628.00
2023-12-11T03:28:13.818Z,624.00
2023-12-11T03:29:13.814Z,626.00
2023-12-11T03:30:13.898Z,623.00
2023-12-11T03:31:14.024Z,622.00
2023-12-11T03:32:14.004Z,618.00
2023-12-11T03:33:14.131Z,618.00
2023-12-11T03:34:14.176Z,627.00
2023-12-11T03:35:14.191Z,626.00
2023-12-11T03:36:14.249Z,624.00
2023-12-11T03:37:14.314Z,614.00
2023-12-11T03:38:14.333Z,627.00
2023-12-11T03:39:14.412Z,613.00
2023-12-11T03:40:14.471Z,615.00
2023-12-11T03:41:14.490Z,626.00
2023-12-11T03:42:14.596Z,621.00
2023-12-11T03:43:14.662Z,617.00
2023-12-11T03:44:14.667Z,622.00
2023-12-11T03:45:14.778Z,617.00
2023-12-11T03:46:14.808Z,624.00
2023-12-11T03:47:14.900Z,618.00
2023-12-11T03:48:15.113Z,619.00
2023-12-11T03:49:15.140Z,626.00
2023-12-11T03:50:15.010Z,619.00
2023-12-11T03:51:15.088Z,617.00
2023-12-11T03:52:15.186Z,631.00
2023-12-11T03:53:15.224Z,626.00
2023-12-11T03:54:15.305Z,617.00
2023-12-11T03:55:15.395Z,629.00
2023-12-11T03:56:15.668Z,617.00
2023-12-11T03:57:15.523Z,624.00
2023-12-11T03:58:15.597Z,621.00
2023-12-11T03:59:15.591Z,620.00
2023-12-11T04:00:15.661Z,619.00
2023-12-11T04:01:15.805Z,621.00
2023-12-11T04:02:15.830Z,615.00
2023-12-11T04:03:15.832Z,620.00
2023-12-11T04:04:15.936Z,620.00
2023-12-11T04:05:15.910Z,621.00
2023-12-11T04:06:16.031Z,622.00
2023-12-11T04:07:16.039Z,616.00
2023-12-11T04:08:16.118Z,627.00
2023-12-11T04:09:16.175Z,621.00
2023-12-11T04:10:16.281Z,617.00
2023-12-11T04:11:16.308Z,618.00
2023-12-11T04:12:16.303Z,623.00
2023-12-11T04:13:16.393Z,625.00
2023-12-11T04:14:16.426Z,616.00
2023-12-11T04:15:16.476Z,626.00
2023-12-11T04:16:16.546Z,617.00
2023-12-11T04:17:16.560Z,613.00
2023-12-11T04:18:16.709Z,622.00
2023-12-11T04:19:16.798Z,625.00
2023-12-11T04:20:16.726Z,618.00
2023-12-11T04:21:16.811Z,614.00
2023-12-11T04:22:16.864Z,624.00
2023-12-11T04:23:16.822Z,614.00
2023-12-11T04:24:16.829Z,619.00
2023-12-11T04:25:16.877Z,623.00
2023-12-11T04:26:24.052Z,600.00
2023-12-11T04:27:24.045Z,600.00
2023-12-11T04:28:24.023Z,600.00
2023-12-11T04:29:24.035Z,600.00
2023-12-11T04:30:24.039Z,600.00
2023-12-11T04:31:31.261Z,600.00
2023-12-11T04:32:31.357Z,600.00
2023-12-11T04:33:31.438Z,600.00
2023-12-11T04:34:31.336Z,600.00
2023-12-11T04:35:31.249Z,600.00
2023-12-11T04:36:31.273Z,608.00
2023-12-11T04:37:31.579Z,606.00
2023-12-11T04:38:31.208Z,608.00
2023-12-11T04:39:31.222Z,600.00
2023-12-11T04:40:31.237Z,606.00
2023-12-11T04:41:31.221Z,608.00
2023-12-11T04:42:31.226Z,607.00
2023-12-11T04:43:31.949Z,604.00
2023-12-11T04:44:31.213Z,605.00
2023-12-11T04:45:31.264Z,603.00
2023-12-11T04:46:31.266Z,602.00
2023-12-11T04:47:31.491Z,601.00
2023-12-11T04:48:31.292Z,601.00
2023-12-11T04:49:31.368Z,603.00
2023-12-11T04:50:31.261Z,612.00
2023-12-11T04:51:31.253Z,608.00
2023-12-11T04:52:31.256Z,609.00
2023-12-11T04:53:31.249Z,613.00
2023-12-11T04:54:31.257Z,608.00
2023-12-11T04:55:31.369Z,607.00
2023-12-11T04:56:31.267Z,605.00
2023-12-11T04:57:31.556Z,612.00
2023-12-11T04:58:31.353Z,600.00
2023-12-11T04:59:31.424Z,609.00
2023-12-11T05:00:31.489Z,600.00
2023-12-11T05:01:31.555Z,613.00
2023-12-11T05:02:31.592Z,609.00
2023-12-11T05:03:31.593Z,613.00
2023-12-11T05:04:31.645Z,614.00
2023-12-11T05:05:31.805Z,609.00
2023-12-11T05:06:31.817Z,615.00
2023-12-11T05:07:32.091Z,612.00
2023-12-11T05:08:31.873Z,612.00
2023-12-11T05:09:32.090Z,605.00
2023-12-11T05:10:32.045Z,604.00
2023-12-11T05:11:32.107Z,605.00
2023-12-11T05:12:32.276Z,612.00
2023-12-11T05:13:32.200Z,601.00
2023-12-11T05:14:32.277Z,599.00
2023-12-11T05:15:32.366Z,611.00
2023-12-11T05:16:32.405Z,614.00
2023-12-11T05:17:32.598Z,602.00
2023-12-11T05:18:32.561Z,608.00
2023-12-11T05:19:32.574Z,607.00
2023-12-11T05:20:32.488Z,609.00
2023-12-11T05:21:32.653Z,600.00
2023-12-11T05:22:32.536Z,601.00
2023-12-11T05:23:32.517Z,604.00
2023-12-11T05:24:32.738Z,607.00
2023-12-11T05:25:32.659Z,608.00
2023-12-11T05:26:32.760Z,606.00
2023-12-11T05:27:32.997Z,603.00
2023-12-11T05:28:32.894Z,600.00
2023-12-11T05:29:32.934Z,610.00
2023-12-11T05:30:33.053Z,605.00
2023-12-11T05:31:33.037Z,609.00
2023-12-11T05:32:33.272Z,610.00
2023-12-11T05:33:33.311Z,600.00
2023-12-11T05:34:33.253Z,608.00
2023-12-11T05:35:33.292Z,610.00
2023-12-11T05:36:33.416Z,601.00
2023-12-11T05:37:33.565Z,605.00
2023-12-11T05:38:33.507Z,608.00
2023-12-11T05:39:33.586Z,604.00
2023-12-11T05:40:33.677Z,604.00
2023-12-11T05:41:33.618Z,609.00
2023-12-11T05:42:33.711Z,603.00
2023-12-11T05:43:33.696Z,607.00
2023-12-11T05:44:33.793Z,610.00
2023-12-11T05:45:33.884Z,606.00
2023-12-11T05:46:33.904Z,605.00
2023-12-11T05:47:34.238Z,602.00
2023-12-11T05:48:34.261Z,603.00
2023-12-11T05:49:34.213Z,600.00
2023-12-11T05:50:34.772Z,611.00
2023-12-11T05:51:34.261Z,608.00
2023-12-11T05:52:34.337Z,603.00
2023-12-11T05:53:34.330Z,610.00
2023-12-11T05:54:34.403Z,605.00
2023-12-11T05:55:34.424Z,609.00
2023-12-11T05:56:34.451Z,607.00
2023-12-11T05:57:34.457Z,607.00
2023-12-11T05:58:34.419Z,600.00
2023-12-11T05:59:34.461Z,612.00
2023-12-11T06:00:34.606Z,613.00
2023-12-11T06:01:34.585Z,610.00
2023-12-11T06:02:34.565Z,611.00
2023-12-11T06:03:34.637Z,607.00
2023-12-11T06:04:34.661Z,606.00
2023-12-11T06:05:34.764Z,614.00
2023-12-11T06:06:34.768Z,610.00
2023-12-11T06:07:34.835Z,606.00
2023-12-11T06:08:34.897Z,612.00
2023-12-11T06:09:34.965Z,620.00
2023-12-11T06:10:35.066Z,604.00
2023-12-11T06:11:35.124Z,609.00
2023-12-11T06:12:35.271Z,608.00
2023-12-11T06:13:35.211Z,607.00
2023-12-11T06:14:35.235Z,610.00
2023-12-11T06:15:35.418Z,612.00
2023-12-11T06:16:35.393Z,609.00
2023-12-11T06:17:36.059Z,615.00
2023-12-11T06:18:35.596Z,610.00
2023-12-11T06:19:35.656Z,604.00
2023-12-11T06:20:35.649Z,609.00
2023-12-11T06:21:35.733Z,604.00
2023-12-11T06:22:35.818Z,613.00
2023-12-11T06:23:35.824Z,606.00
2023-12-11T06:24:35.945Z,612.00
2023-12-11T06:25:36.000Z,607.00
2023-12-11T06:26:36.024Z,607.00
2023-12-11T06:27:36.119Z,604.00
2023-12-11T06:28:36.167Z,608.00
2023-12-11T06:29:36.211Z,609.00
2023-12-11T06:30:36.359Z,607.00
2023-12-11T06:31:36.294Z,622.00
2023-12-11T06:32:36.500Z,613.00
2023-12-11T06:33:36.510Z,619.00
2023-12-11T06:34:36.574Z,624.00
2023-12-11T06:35:36.507Z,629.00
2023-12-11T06:36:36.614Z,619.00
2023-12-11T06:37:36.662Z,627.00
2023-12-11T06:38:36.675Z,622.00
2023-12-11T06:39:36.919Z,623.00
2023-12-11T06:40:36.749Z,626.00
2023-12-11T06:41:36.757Z,624.00
2023-12-11T06:42:36.810Z,626.00
2023-12-11T06:43:36.732Z,642.00
2023-12-11T06:44:36.934Z,644.00
2023-12-11T06:45:39.149Z,641.00
2023-12-11T06:46:36.937Z,649.00
2023-12-11T06:47:37.005Z,644.00
2023-12-11T06:48:37.148Z,642.00
2023-12-11T06:49:37.509Z,642.00
2023-12-11T06:50:37.494Z,646.00
2023-12-11T06:51:37.323Z,639.00
2023-12-11T06:52:37.352Z,634.00
2023-12-11T06:53:37.411Z,630.00
2023-12-11T06:54:37.491Z,632.00
2023-12-11T06:55:37.531Z,633.00
2023-12-11T06:56:37.588Z,634.00
2023-12-11T06:57:37.677Z,631.00
2023-12-11T06:58:37.646Z,633.00
2023-12-11T06:59:37.664Z,629.00
2023-12-11T07:00:38.096Z,628.00
2023-12-11T07:01:37.865Z,629.00
2023-12-11T07:02:38.516Z,631.00
2023-12-11T07:03:37.882Z,636.00
2023-12-11T07:04:37.926Z,637.00
2023-12-11T07:05:38.091Z,635.00
2023-12-11T07:06:38.016Z,640.00
2023-12-11T07:07:38.046Z,637.00
2023-12-11T07:08:38.074Z,637.00
2023-12-11T07:09:38.491Z,638.00
2023-12-11T07:10:39.461Z,646.00
2023-12-11T07:11:38.286Z,646.00
2023-12-11T07:12:38.269Z,646.00
2023-12-11T07:13:38.278Z,645.00
2023-12-11T07:14:39.928Z,645.00
2023-12-11T07:15:38.461Z,646.00
2023-12-11T07:16:38.343Z,648.00
2023-12-11T07:17:38.579Z,648.00
2023-12-11T07:18:38.566Z,650.00
2023-12-11T07:19:38.570Z,654.00
2023-12-11T07:20:38.636Z,657.00
2023-12-11T07:21:38.758Z,657.00
2023-12-11T07:22:38.415Z,659.00
2023-12-11T07:23:38.421Z,658.00
2023-12-11T07:24:38.475Z,660.00
2023-12-11T07:25:39.291Z,660.00
2023-12-11T07:26:38.530Z,663.00
2023-12-11T07:27:38.516Z,664.00
2023-12-11T07:28:38.518Z,667.00
2023-12-11T07:29:38.513Z,664.00
2023-12-11T07:30:38.603Z,676.00
2023-12-11T07:31:38.601Z,665.00
2023-12-11T07:32:38.649Z,664.00
2023-12-11T07:33:38.966Z,671.00
2023-12-11T07:34:38.796Z,673.00
2023-12-11T07:35:38.908Z,672.00
2023-12-11T07:36:38.743Z,675.00
2023-12-11T07:37:38.746Z,671.00
2023-12-11T07:38:38.745Z,683.00
2023-12-11T07:39:38.774Z,686.00
2023-12-11T07:40:38.985Z,676.00
2023-12-11T07:41:39.539Z,675.00
2023-12-11T07:42:38.780Z,686.00
2023-12-11T07:43:38.824Z,694.00
2023-12-11T07:44:38.842Z,707.00
2023-12-11T07:45:38.987Z,720.00
2023-12-11T07:46:42.250Z,717.00
2023-12-11T07:47:38.973Z,717.00
2023-12-11T07:48:38.996Z,718.00
2023-12-11T07:49:38.955Z,712.00
2023-12-11T07:50:38.923Z,710.00
2023-12-11T07:51:38.966Z,722.00
2023-12-11T07:52:38.903Z,705.00
2023-12-11T07:53:38.876Z,707.00
2023-12-11T07:54:38.928Z,705.00
2023-12-11T07:55:38.950Z,708.00
2023-12-11T07:56:38.909Z,701.00
2023-12-11T07:57:40.906Z,700.00
2023-12-11T07:58:38.936Z,706.00
2023-12-11T07:59:38.915Z,702.00
2023-12-11T08:00:39.008Z,702.00
2023-12-11T08:01:38.982Z,706.00
2023-12-11T08:02:39.067Z,704.00
2023-12-11T08:03:39.048Z,712.00
2023-12-11T08:04:39.061Z,707.00
2023-12-11T08:05:38.964Z,710.00
2023-12-11T08:06:39.001Z,703.00
2023-12-11T08:07:39.112Z,711.00
2023-12-11T08:08:39.450Z,703.00
2023-12-11T08:09:39.624Z,704.00
2023-12-11T08:10:39.356Z,701.00
2023-12-11T08:11:39.369Z,702.00
2023-12-11T08:12:39.408Z,700.00
2023-12-11T08:13:39.469Z,691.00
2023-12-11T08:14:40.039Z,706.00
2023-12-11T08:15:39.582Z,698.00
2023-12-11T08:16:39.630Z,712.00
2023-12-11T08:17:39.695Z,698.00
2023-12-11T08:18:39.828Z,692.00
2023-12-11T08:19:40.038Z,695.00
2023-12-11T08:20:39.894Z,699.00
2023-12-11T08:21:40.680Z,694.00
2023-12-11T08:22:40.131Z,700.00
2023-12-11T08:23:40.164Z,690.00
2023-12-11T08:24:40.324Z,703.00
2023-12-11T08:25:40.955Z,698.00
2023-12-11T08:26:40.670Z,692.00
2023-12-11T08:27:40.562Z,696.00
2023-12-11T08:28:40.536Z,704.00
2023-12-11T08:29:57.159Z,600.00
2023-12-11T08:30:53.592Z,600.00
2023-12-11T08:31:53.069Z,600.00
2023-12-11T08:32:53.134Z,600.00
2023-12-11T08:33:55.727Z,600.00
2023-12-11T08:34:55.661Z,600.00
2023-12-11T08:35:54.629Z,600.00
2023-12-11T08:36:53.010Z,600.00
2023-12-11T08:37:52.976Z,600.00
2023-12-11T08:38:55.670Z,600.00
2023-12-11T08:39:53.978Z,600.00
2023-12-11T08:40:54.969Z,600.00
2023-12-11T08:41:53.588Z,602.00
2023-12-11T08:42:53.108Z,600.00
2023-12-11T08:43:52.988Z,601.00
2023-12-11T08:44:53.079Z,618.00
2023-12-11T08:45:54.739Z,624.00
2023-12-11T08:46:52.959Z,624.00
2023-12-11T08:47:53.217Z,627.00
2023-12-11T08:48:53.125Z,633.00
2023-12-11T08:49:53.363Z,645.00
2023-12-11T08:50:53.152Z,657.00
2023-12-11T08:51:53.302Z,665.00
2023-12-11T08:52:53.655Z,701.00
2023-12-11T08:53:53.224Z,711.00
2023-12-11T08:54:53.502Z,735.00
2023-12-11T08:55:53.336Z,755.00
2023-12-11T08:56:53.570Z,764.00
2023-12-11T08:57:53.433Z,757.00
2023-12-11T08:58:54.475Z,761.00
2023-12-11T08:59:53.520Z,800.00
2023-12-11T09:00:53.574Z,806.00
2023-12-11T09:01:54.746Z,802.00
2023-12-11T09:02:54.104Z,807.00
2023-12-11T09:03:53.798Z,819.00
2023-12-11T09:04:57.221Z,801.00
2023-12-11T09:05:57.133Z,812.00
2023-12-11T09:06:55.072Z,813.00
2023-12-11T09:07:53.622Z,812.00
2023-12-11T09:08:53.806Z,813.00
2023-12-11T09:09:53.790Z,808.00
2023-12-11T09:10:55.622Z,800.00
2023-12-11T09:11:54.178Z,805.00
2023-12-11T09:12:53.649Z,817.00
2023-12-11T09:13:55.611Z,795.00
2023-12-11T09:14:53.664Z,797.00
2023-12-11T09:15:53.804Z,794.00
2023-12-11T09:16:53.828Z,791.00
2023-12-11T09:17:53.775Z,799.00
2023-12-11T09:18:55.649Z,786.00
2023-12-11T09:19:55.626Z,779.00
2023-12-11T09:20:53.726Z,784.00
2023-12-11T09:21:53.718Z,782.00
2023-12-11T09:22:53.773Z,772.00
2023-12-11T09:23:54.530Z,771.00
2023-12-11T09:24:53.754Z,765.00
2023-12-11T09:25:54.110Z,756.00
2023-12-11T09:26:53.672Z,759.00
2023-12-11T09:27:53.802Z,760.00
2023-12-11T09:28:53.787Z,748.00
2023-12-11T09:29:53.786Z,717.00
2023-12-11T09:30:54.203Z,722.00
2023-12-11T09:31:53.682Z,757.00
2023-12-11T09:32:53.876Z,804.00
2023-12-11T09:33:53.823Z,815.00
2023-12-11T09:34:54.295Z,814.00
2023-12-11T09:35:53.702Z,792.00
2023-12-11T09:36:53.865Z,785.00
2023-12-11T09:37:54.068Z,767.00
2023-12-11T09:38:53.726Z,744.00
2023-12-11T09:39:54.979Z,723.00
2023-12-11T09:40:54.417Z,701.00
2023-12-11T09:41:53.656Z,677.00
2023-12-11T09:42:53.802Z,666.00
2023-12-11T09:43:54.507Z,661.00
2023-12-11T09:44:54.091Z,660.00
2023-12-11T09:45:53.682Z,657.00
2023-12-11T09:46:54.042Z,653.00
2023-12-11T09:48:04.733Z,648.00
2023-12-11T09:48:54.843Z,648.00
2023-12-11T09:49:55.363Z,647.00
2023-12-11T09:50:53.671Z,644.00
2023-12-11T09:51:53.712Z,641.00
2023-12-11T09:52:53.718Z,643.00
2023-12-11T09:53:53.751Z,651.00
2023-12-11T09:54:54.113Z,648.00
2023-12-11T09:55:53.696Z,645.00
2023-12-11T09:56:54.107Z,646.00
2023-12-11T09:57:54.799Z,647.00
2023-12-11T09:58:53.866Z,641.00
2023-12-11T09:59:54.015Z,645.00
2023-12-11T10:00:53.964Z,640.00
2023-12-11T10:01:55.794Z,642.00
2023-12-11T10:02:54.604Z,645.00
2023-12-11T10:03:54.040Z,644.00
2023-12-11T10:04:54.063Z,648.00
2023-12-11T10:05:54.070Z,650.00
2023-12-11T10:06:54.240Z,647.00
2023-12-11T10:07:54.258Z,645.00
2023-12-11T10:08:54.778Z,649.00
2023-12-11T10:09:54.707Z,649.00
2023-12-11T10:10:55.001Z,649.00
2023-12-11T10:11:54.302Z,649.00
2023-12-11T10:12:54.299Z,643.00
2023-12-11T10:13:54.278Z,648.00
2023-12-11T10:14:56.758Z,647.00
2023-12-11T10:15:54.499Z,644.00
2023-12-11T10:16:54.549Z,646.00
2023-12-11T10:17:54.588Z,648.00
2023-12-11T10:18:54.751Z,647.00
2023-12-11T10:19:54.824Z,642.00
2023-12-11T10:20:54.737Z,647.00
2023-12-11T10:21:56.479Z,645.00
2023-12-11T10:22:54.710Z,644.00
2023-12-11T10:23:55.533Z,646.00
2023-12-11T10:24:55.287Z,649.00
2023-12-11T10:25:54.881Z,649.00
2023-12-11T10:26:54.784Z,645.00
2023-12-11T10:27:56.596Z,648.00
2023-12-11T10:28:55.181Z,644.00
2023-12-11T10:29:54.911Z,641.00
2023-12-11T10:30:55.236Z,646.00
2023-12-11T10:31:54.904Z,646.00
2023-12-11T10:32:55.366Z,644.00
2023-12-11T10:33:55.251Z,639.00
2023-12-11T10:34:55.155Z,643.00
2023-12-11T10:35:55.307Z,640.00
2023-12-11T10:36:55.121Z,644.00
2023-12-11T10:37:55.291Z,642.00
2023-12-11T10:38:55.568Z,645.00
2023-12-11T10:39:55.313Z,638.00
2023-12-11T10:40:56.169Z,639.00
2023-12-11T10:41:55.304Z,633.00
2023-12-11T10:42:55.496Z,624.00
2023-12-11T10:44:08.203Z,626.00
2023-12-11T10:44:57.261Z,626.00
2023-12-11T10:45:55.660Z,624.00
2023-12-11T10:46:55.459Z,614.00
2023-12-11T10:47:55.496Z,616.00
2023-12-11T10:48:56.322Z,615.00
2023-12-11T10:49:55.456Z,620.00
2023-12-11T10:50:55.670Z,613.00
2023-12-11T10:51:55.725Z,617.00
2023-12-11T10:52:55.550Z,611.00
2023-12-11T10:53:56.587Z,605.00
2023-12-11T10:54:55.804Z,603.00
2023-12-11T10:55:55.639Z,603.00
2023-12-11T10:56:55.940Z,603.00
2023-12-11T10:57:55.757Z,602.00
2023-12-11T10:58:55.845Z,604.00
2023-12-11T10:59:56.172Z,605.00
2023-12-11T11:00:56.316Z,602.00
2023-12-11T11:01:55.972Z,601.00
2023-12-11T11:02:55.955Z,600.00
2023-12-11T11:03:55.871Z,603.00
2023-12-11T11:04:56.075Z,598.00
2023-12-11T11:05:56.806Z,602.00
2023-12-11T11:06:56.176Z,608.00
2023-12-11T11:07:56.088Z,603.00
2023-12-11T11:08:56.296Z,599.00
2023-12-11T11:09:56.260Z,602.00
2023-12-11T11:10:56.257Z,605.00
2023-12-11T11:11:56.714Z,602.00
2023-12-11T11:12:56.389Z,602.00
2023-12-11T11:13:56.421Z,600.00
2023-12-11T11:14:56.645Z,604.00
2023-12-11T11:15:56.644Z,601.00
2023-12-11T11:16:56.859Z,607.00
2023-12-11T11:17:56.691Z,601.00
2023-12-11T11:18:56.826Z,606.00
2023-12-11T11:19:57.389Z,604.00
2023-12-11T11:20:56.948Z,609.00
2023-12-11T11:21:56.983Z,607.00
2023-12-11T11:22:57.047Z,605.00
2023-12-11T11:23:57.184Z,604.00
2023-12-11T11:24:57.302Z,610.00
2023-12-11T11:25:57.307Z,608.00
2023-12-11T11:26:57.163Z,604.00
2023-12-11T11:27:57.250Z,605.00
2023-12-11T11:28:58.295Z,606.00
2023-12-11T11:29:57.845Z,612.00
2023-12-11T11:30:57.480Z,625.00
2023-12-11T11:31:57.437Z,636.00
2023-12-11T11:32:57.565Z,629.00
2023-12-11T11:33:57.605Z,627.00
2023-12-11T11:34:57.655Z,621.00
2023-12-11T11:35:57.573Z,618.00
2023-12-11T11:36:57.682Z,616.00
2023-12-11T11:37:57.627Z,615.00
2023-12-11T11:38:59.021Z,613.00
2023-12-11T11:39:58.250Z,607.00
2023-12-11T11:40:58.363Z,605.00
2023-12-11T11:41:57.858Z,603.00
2023-12-11T11:42:58.041Z,604.00
2023-12-11T11:43:58.019Z,602.00
2023-12-11T11:44:58.072Z,601.00
2023-12-11T11:45:58.757Z,601.00
2023-12-11T11:46:59.223Z,602.00
2023-12-11T11:47:58.331Z,603.00
2023-12-11T11:48:59.391Z,601.00
2023-12-11T11:49:58.401Z,600.00
2023-12-11T11:50:58.763Z,603.00
2023-12-11T11:51:58.471Z,603.00
2023-12-11T11:52:58.642Z,606.00
2023-12-11T11:53:58.534Z,605.00
2023-12-11T11:54:59.487Z,603.00
2023-12-11T11:55:58.652Z,602.00
2023-12-11T11:56:58.689Z,602.00
2023-12-11T11:57:58.857Z,603.00
2023-12-11T11:58:58.885Z,602.00
2023-12-11T11:59:58.777Z,603.00
2023-12-11T12:00:58.888Z,607.00
2023-12-11T12:01:58.874Z,609.00
2023-12-11T12:02:59.162Z,604.00
2023-12-11T12:03:59.086Z,609.00
2023-12-11T12:05:00.423Z,611.00
2023-12-11T12:05:59.099Z,611.00
2023-12-11T12:06:59.431Z,605.00
2023-12-11T12:07:59.267Z,608.00
2023-12-11T12:08:59.086Z,607.00
2023-12-11T12:09:59.791Z,611.00
2023-12-11T12:10:59.187Z,607.00
2023-12-11T12:11:59.268Z,611.00
2023-12-11T12:12:59.261Z,609.00
2023-12-11T12:13:59.229Z,607.00
2023-12-11T12:14:59.179Z,613.00
2023-12-11T12:15:59.340Z,616.00
2023-12-11T12:16:59.602Z,614.00
2023-12-11T12:17:59.819Z,611.00
2023-12-11T12:18:59.477Z,612.00
2023-12-11T12:20:00.949Z,611.00
2023-12-11T12:20:59.473Z,606.00
2023-12-11T12:21:59.607Z,609.00
2023-12-11T12:22:59.718Z,614.00
2023-12-11T12:23:59.492Z,611.00
2023-12-11T12:24:59.504Z,618.00
2023-12-11T12:25:59.489Z,624.00
2023-12-11T12:26:59.631Z,616.00
2023-12-11T12:27:59.582Z,617.00
2023-12-11T12:28:59.624Z,619.00